Lindenwood, Illinois
Current Conditions -  °F | °C
As of 7:15 PM on Sunday 21 Dec 2014 (Local Time) from KRPJ Reporting Station
Overcast Overcast  
Wind Chill: 24°   Ceiling: 2700
Heat Index: 34°   Visibility: 10mi
Dew Point: 31°   Wind: 15mph
Humidity: 90%   Direction: 150°SSE
Pressure: 30.02"   Gusts: NA
Location:  42.05°N, 89.03°W
Report Text: KRPJ 220115Z AUTO 15013KT 10SM OVC027 01/M01 A3002 RMK AO2 T00091006
Loading
Personal Weather Stations






























Interactive Weather Map New forecast layout! Learn more

10-Day Weather Forecast

Advertisements
Track Severe Weather on mobile